sensor_id;sensor_type;location;lat;lon;timestamp;P1;durP1;ratioP1;P2;durP2;ratioP2
56794;SDS011;42678;59.400;18.410;2023-01-13T00:01:34;6.30;;;1.45;;
56794;SDS011;42678;59.400;18.410;2023-01-13T00:03:59;9.88;;;1.75;;
56794;SDS011;42678;59.400;18.410;2023-01-13T00:06:25;6.10;;;1.35;;
56794;SDS011;42678;59.400;18.410;2023-01-13T00:08:52;8.98;;;2.10;;
56794;SDS011;42678;59.400;18.410;2023-01-13T00:11:18;10.20;;;1.83;;
56794;SDS011;42678;59.400;18.410;2023-01-13T00:13:43;13.57;;;1.77;;
56794;SDS011;42678;59.400;18.410;2023-01-13T00:16:10;7.82;;;1.77;;
56794;SDS011;42678;59.400;18.410;2023-01-13T00:18:36;9.07;;;1.80;;
56794;SDS011;42678;59.400;18.410;2023-01-13T00:21:11;12.38;;;1.90;;
56794;SDS011;42678;59.400;18.410;2023-01-13T00:23:37;10.85;;;2.35;;
56794;SDS011;42678;59.400;18.410;2023-01-13T00:26:05;8.30;;;1.60;;
56794;SDS011;42678;59.400;18.410;2023-01-13T00:28:30;12.18;;;1.60;;
56794;SDS011;42678;59.400;18.410;2023-01-13T00:31:12;7.15;;;2.25;;
56794;SDS011;42678;59.400;18.410;2023-01-13T00:33:41;5.53;;;1.95;;
56794;SDS011;42678;59.400;18.410;2023-01-13T00:36:09;8.35;;;1.90;;
56794;SDS011;42678;59.400;18.410;2023-01-13T00:38:36;9.13;;;2.20;;
56794;SDS011;42678;59.400;18.410;2023-01-13T00:41:10;6.20;;;1.92;;
56794;SDS011;42678;59.400;18.410;2023-01-13T00:43:36;6.35;;;1.73;;
56794;SDS011;42678;59.400;18.410;2023-01-13T00:46:02;9.57;;;1.55;;
56794;SDS011;42678;59.400;18.410;2023-01-13T00:48:28;10.80;;;1.88;;
56794;SDS011;42678;59.400;18.410;2023-01-13T00:51:00;14.18;;;2.35;;
56794;SDS011;42678;59.400;18.410;2023-01-13T00:53:27;6.55;;;1.98;;
56794;SDS011;42678;59.400;18.410;2023-01-13T00:56:25;9.88;;;1.85;;
56794;SDS011;42678;59.400;18.410;2023-01-13T00:58:44;9.77;;;1.85;;
56794;SDS011;42678;59.400;18.410;2023-01-13T01:01:15;3.67;;;1.13;;
56794;SDS011;42678;59.400;18.410;2023-01-13T01:03:40;5.50;;;1.63;;
56794;SDS011;42678;59.400;18.410;2023-01-13T01:08:34;8.70;;;1.92;;
56794;SDS011;42678;59.400;18.410;2023-01-13T01:11:04;4.85;;;1.42;;
56794;SDS011;42678;59.400;18.410;2023-01-13T01:13:31;8.35;;;1.42;;
56794;SDS011;42678;59.400;18.410;2023-01-13T01:15:57;4.22;;;1.73;;
56794;SDS011;42678;59.400;18.410;2023-01-13T01:18:22;5.00;;;1.40;;
56794;SDS011;42678;59.400;18.410;2023-01-13T01:20:48;5.93;;;1.08;;
56794;SDS011;42678;59.400;18.410;2023-01-13T01:23:14;8.38;;;1.60;;
56794;SDS011;42678;59.400;18.410;2023-01-13T01:25:41;9.27;;;1.02;;
56794;SDS011;42678;59.400;18.410;2023-01-13T01:28:06;10.05;;;1.80;;
56794;SDS011;42678;59.400;18.410;2023-01-13T01:30:32;4.63;;;1.63;;
56794;SDS011;42678;59.400;18.410;2023-01-13T01:32:57;5.43;;;1.38;;
56794;SDS011;42678;59.400;18.410;2023-01-13T01:35:23;10.93;;;1.73;;
56794;SDS011;42678;59.400;18.410;2023-01-13T01:37:48;4.38;;;1.60;;
56794;SDS011;42678;59.400;18.410;2023-01-13T01:40:14;5.72;;;1.38;;
56794;SDS011;42678;59.400;18.410;2023-01-13T01:42:39;6.35;;;1.50;;
56794;SDS011;42678;59.400;18.410;2023-01-13T01:45:25;9.27;;;1.90;;
56794;SDS011;42678;59.400;18.410;2023-01-13T01:47:56;9.23;;;1.95;;
56794;SDS011;42678;59.400;18.410;2023-01-13T01:50:23;7.25;;;1.75;;
56794;SDS011;42678;59.400;18.410;2023-01-13T01:52:50;10.88;;;2.35;;
56794;SDS011;42678;59.400;18.410;2023-01-13T01:55:18;8.27;;;1.80;;
56794;SDS011;42678;59.400;18.410;2023-01-13T01:57:46;9.40;;;2.72;;
56794;SDS011;42678;59.400;18.410;2023-01-13T02:00:13;8.65;;;2.00;;
56794;SDS011;42678;59.400;18.410;2023-01-13T02:02:39;10.50;;;1.98;;
56794;SDS011;42678;59.400;18.410;2023-01-13T02:05:05;6.88;;;1.63;;
56794;SDS011;42678;59.400;18.410;2023-01-13T02:07:31;10.68;;;2.28;;
56794;SDS011;42678;59.400;18.410;2023-01-13T02:09:58;6.10;;;1.83;;
56794;SDS011;42678;59.400;18.410;2023-01-13T02:12:25;6.00;;;1.88;;
56794;SDS011;42678;59.400;18.410;2023-01-13T02:14:56;9.10;;;1.92;;
56794;SDS011;42678;59.400;18.410;2023-01-13T02:17:31;9.27;;;2.03;;
56794;SDS011;42678;59.400;18.410;2023-01-13T02:20:18;7.40;;;2.03;;
56794;SDS011;42678;59.400;18.410;2023-01-13T02:28:13;6.90;;;1.67;;
56794;SDS011;42678;59.400;18.410;2023-01-13T02:30:43;8.52;;;2.00;;
56794;SDS011;42678;59.400;18.410;2023-01-13T02:33:30;6.72;;;1.67;;
56794;SDS011;42678;59.400;18.410;2023-01-13T02:36:07;5.45;;;1.30;;
56794;SDS011;42678;59.400;18.410;2023-01-13T02:38:37;14.10;;;2.65;;
56794;SDS011;42678;59.400;18.410;2023-01-13T02:41:04;8.68;;;1.73;;
56794;SDS011;42678;59.400;18.410;2023-01-13T02:43:54;6.95;;;1.40;;
56794;SDS011;42678;59.400;18.410;2023-01-13T02:46:32;8.23;;;2.00;;
56794;SDS011;42678;59.400;18.410;2023-01-13T02:49:00;9.57;;;2.30;;
56794;SDS011;42678;59.400;18.410;2023-01-13T02:51:27;7.13;;;1.45;;
56794;SDS011;42678;59.400;18.410;2023-01-13T02:53:56;15.70;;;2.10;;
56794;SDS011;42678;59.400;18.410;2023-01-13T02:56:23;9.13;;;2.10;;
56794;SDS011;42678;59.400;18.410;2023-01-13T02:58:51;9.80;;;2.70;;
56794;SDS011;42678;59.400;18.410;2023-01-13T03:01:17;8.15;;;1.75;;
56794;SDS011;42678;59.400;18.410;2023-01-13T03:03:42;9.07;;;2.38;;
56794;SDS011;42678;59.400;18.410;2023-01-13T03:08:42;12.60;;;2.30;;
56794;SDS011;42678;59.400;18.410;2023-01-13T03:11:11;11.23;;;2.55;;
56794;SDS011;42678;59.400;18.410;2023-01-13T03:16:28;11.32;;;4.20;;
56794;SDS011;42678;59.400;18.410;2023-01-13T03:26:38;10.05;;;2.33;;
56794;SDS011;42678;59.400;18.410;2023-01-13T03:29:49;6.53;;;1.90;;
56794;SDS011;42678;59.400;18.410;2023-01-13T03:34:33;10.75;;;2.33;;
56794;SDS011;42678;59.400;18.410;2023-01-13T03:37:01;10.50;;;2.47;;
56794;SDS011;42678;59.400;18.410;2023-01-13T03:39:28;7.80;;;2.08;;
56794;SDS011;42678;59.400;18.410;2023-01-13T03:42:00;8.73;;;2.25;;
56794;SDS011;42678;59.400;18.410;2023-01-13T03:44:37;8.63;;;1.83;;
56794;SDS011;42678;59.400;18.410;2023-01-13T03:47:14;11.63;;;1.90;;
56794;SDS011;42678;59.400;18.410;2023-01-13T03:49:48;9.43;;;1.75;;
56794;SDS011;42678;59.400;18.410;2023-01-13T03:52:18;6.70;;;2.05;;
56794;SDS011;42678;59.400;18.410;2023-01-13T03:54:48;8.25;;;1.13;;
56794;SDS011;42678;59.400;18.410;2023-01-13T03:57:17;5.53;;;1.48;;
56794;SDS011;42678;59.400;18.410;2023-01-13T03:59:44;7.18;;;1.40;;
56794;SDS011;42678;59.400;18.410;2023-01-13T04:02:17;5.63;;;1.35;;
56794;SDS011;42678;59.400;18.410;2023-01-13T04:04:46;8.38;;;1.55;;
56794;SDS011;42678;59.400;18.410;2023-01-13T04:12:14;6.93;;;0.90;;
56794;SDS011;42678;59.400;18.410;2023-01-13T04:14:41;7.18;;;1.83;;
56794;SDS011;42678;59.400;18.410;2023-01-13T04:17:06;7.07;;;0.95;;
56794;SDS011;42678;59.400;18.410;2023-01-13T04:19:33;4.97;;;1.25;;
56794;SDS011;42678;59.400;18.410;2023-01-13T04:21:59;9.52;;;1.48;;
56794;SDS011;42678;59.400;18.410;2023-01-13T04:24:25;2.92;;;0.85;;
56794;SDS011;42678;59.400;18.410;2023-01-13T04:26:50;4.28;;;0.90;;
56794;SDS011;42678;59.400;18.410;2023-01-13T04:29:16;6.40;;;1.30;;
56794;SDS011;42678;59.400;18.410;2023-01-13T04:31:41;5.97;;;1.20;;
56794;SDS011;42678;59.400;18.410;2023-01-13T04:34:07;7.72;;;1.90;;
56794;SDS011;42678;59.400;18.410;2023-01-13T04:36:32;3.88;;;1.70;;
56794;SDS011;42678;59.400;18.410;2023-01-13T04:38:59;3.08;;;1.50;;
56794;SDS011;42678;59.400;18.410;2023-01-13T04:41:25;7.35;;;1.58;;
56794;SDS011;42678;59.400;18.410;2023-01-13T04:43:52;6.15;;;1.98;;
56794;SDS011;42678;59.400;18.410;2023-01-13T04:46:18;3.45;;;1.20;;
56794;SDS011;42678;59.400;18.410;2023-01-13T04:48:43;5.97;;;1.45;;
56794;SDS011;42678;59.400;18.410;2023-01-13T04:51:09;7.50;;;1.10;;
56794;SDS011;42678;59.400;18.410;2023-01-13T04:53:35;5.20;;;1.52;;
56794;SDS011;42678;59.400;18.410;2023-01-13T04:56:01;5.93;;;2.20;;
56794;SDS011;42678;59.400;18.410;2023-01-13T04:58:26;6.40;;;1.45;;
56794;SDS011;42678;59.400;18.410;2023-01-13T05:00:51;4.85;;;1.40;;
56794;SDS011;42678;59.400;18.410;2023-01-13T05:03:18;4.95;;;1.60;;
56794;SDS011;42678;59.400;18.410;2023-01-13T05:05:43;6.43;;;1.40;;
56794;SDS011;42678;59.400;18.410;2023-01-13T05:08:09;3.05;;;1.40;;
56794;SDS011;42678;59.400;18.410;2023-01-13T05:10:34;2.95;;;1.65;;
56794;SDS011;42678;59.400;18.410;2023-01-13T05:13:00;4.75;;;1.63;;
56794;SDS011;42678;59.400;18.410;2023-01-13T05:15:43;5.10;;;1.15;;
56794;SDS011;42678;59.400;18.410;2023-01-13T05:18:28;4.10;;;2.40;;
56794;SDS011;42678;59.400;18.410;2023-01-13T05:20:53;5.57;;;1.63;;
56794;SDS011;42678;59.400;18.410;2023-01-13T05:23:19;2.50;;;1.30;;
56794;SDS011;42678;59.400;18.410;2023-01-13T05:26:03;6.35;;;2.28;;
56794;SDS011;42678;59.400;18.410;2023-01-13T05:28:31;5.03;;;2.50;;
56794;SDS011;42678;59.400;18.410;2023-01-13T05:30:59;5.78;;;2.45;;
56794;SDS011;42678;59.400;18.410;2023-01-13T05:33:24;6.30;;;3.10;;
56794;SDS011;42678;59.400;18.410;2023-01-13T05:35:52;5.28;;;2.22;;
56794;SDS011;42678;59.400;18.410;2023-01-13T05:38:17;7.68;;;2.50;;
56794;SDS011;42678;59.400;18.410;2023-01-13T05:40:43;7.28;;;3.00;;
56794;SDS011;42678;59.400;18.410;2023-01-13T05:43:27;8.15;;;3.10;;
56794;SDS011;42678;59.400;18.410;2023-01-13T05:46:03;8.10;;;2.95;;
56794;SDS011;42678;59.400;18.410;2023-01-13T05:48:30;5.65;;;2.65;;
56794;SDS011;42678;59.400;18.410;2023-01-13T05:50:56;4.47;;;2.30;;
56794;SDS011;42678;59.400;18.410;2023-01-13T05:53:22;8.60;;;2.63;;
56794;SDS011;42678;59.400;18.410;2023-01-13T05:55:48;3.95;;;1.58;;
56794;SDS011;42678;59.400;18.410;2023-01-13T05:58:14;3.50;;;1.13;;
56794;SDS011;42678;59.400;18.410;2023-01-13T06:00:40;3.58;;;1.40;;
56794;SDS011;42678;59.400;18.410;2023-01-13T06:03:05;8.82;;;2.90;;
56794;SDS011;42678;59.400;18.410;2023-01-13T06:05:31;3.88;;;1.30;;
56794;SDS011;42678;59.400;18.410;2023-01-13T06:07:58;11.70;;;2.13;;
56794;SDS011;42678;59.400;18.410;2023-01-13T06:10:24;9.68;;;3.53;;
56794;SDS011;42678;59.400;18.410;2023-01-13T06:12:50;12.20;;;3.10;;
56794;SDS011;42678;59.400;18.410;2023-01-13T06:15:15;8.48;;;2.42;;
56794;SDS011;42678;59.400;18.410;2023-01-13T06:17:41;1.10;;;0.98;;
56794;SDS011;42678;59.400;18.410;2023-01-13T06:20:07;10.32;;;3.05;;
56794;SDS011;42678;59.400;18.410;2023-01-13T06:22:33;11.68;;;3.80;;
56794;SDS011;42678;59.400;18.410;2023-01-13T06:25:05;9.90;;;3.92;;
56794;SDS011;42678;59.400;18.410;2023-01-13T06:27:32;7.93;;;3.72;;
56794;SDS011;42678;59.400;18.410;2023-01-13T06:29:58;10.02;;;5.15;;
56794;SDS011;42678;59.400;18.410;2023-01-13T06:32:25;13.95;;;5.93;;
56794;SDS011;42678;59.400;18.410;2023-01-13T06:34:52;12.13;;;6.75;;
56794;SDS011;42678;59.400;18.410;2023-01-13T06:37:19;10.95;;;5.07;;
56794;SDS011;42678;59.400;18.410;2023-01-13T06:39:47;6.10;;;3.67;;
56794;SDS011;42678;59.400;18.410;2023-01-13T06:42:13;6.43;;;3.75;;
56794;SDS011;42678;59.400;18.410;2023-01-13T06:44:56;10.23;;;5.13;;
56794;SDS011;42678;59.400;18.410;2023-01-13T06:47:22;4.28;;;2.75;;
56794;SDS011;42678;59.400;18.410;2023-01-13T06:49:47;8.68;;;4.18;;
56794;SDS011;42678;59.400;18.410;2023-01-13T06:52:14;6.13;;;3.13;;
56794;SDS011;42678;59.400;18.410;2023-01-13T06:54:39;7.00;;;1.98;;
56794;SDS011;42678;59.400;18.410;2023-01-13T06:57:06;5.63;;;3.60;;
56794;SDS011;42678;59.400;18.410;2023-01-13T06:59:31;6.65;;;2.10;;
56794;SDS011;42678;59.400;18.410;2023-01-13T07:01:59;5.20;;;2.03;;
56794;SDS011;42678;59.400;18.410;2023-01-13T07:04:25;3.72;;;1.70;;
56794;SDS011;42678;59.400;18.410;2023-01-13T07:06:50;4.90;;;1.80;;
56794;SDS011;42678;59.400;18.410;2023-01-13T07:09:16;5.68;;;2.58;;
56794;SDS011;42678;59.400;18.410;2023-01-13T07:11:41;6.20;;;3.67;;
56794;SDS011;42678;59.400;18.410;2023-01-13T07:14:07;4.95;;;3.55;;
56794;SDS011;42678;59.400;18.410;2023-01-13T07:16:51;9.82;;;3.85;;
56794;SDS011;42678;59.400;18.410;2023-01-13T07:19:18;11.88;;;5.53;;
56794;SDS011;42678;59.400;18.410;2023-01-13T07:21:48;12.13;;;4.90;;
56794;SDS011;42678;59.400;18.410;2023-01-13T07:24:14;14.55;;;6.90;;
56794;SDS011;42678;59.400;18.410;2023-01-13T07:26:40;12.50;;;5.53;;
56794;SDS011;42678;59.400;18.410;2023-01-13T07:29:05;13.13;;;6.40;;
56794;SDS011;42678;59.400;18.410;2023-01-13T07:31:31;11.80;;;5.30;;
56794;SDS011;42678;59.400;18.410;2023-01-13T07:33:56;8.38;;;4.35;;
56794;SDS011;42678;59.400;18.410;2023-01-13T07:36:22;10.32;;;5.15;;
56794;SDS011;42678;59.400;18.410;2023-01-13T07:38:47;11.15;;;4.07;;
56794;SDS011;42678;59.400;18.410;2023-01-13T07:41:13;8.25;;;3.95;;
56794;SDS011;42678;59.400;18.410;2023-01-13T07:43:57;8.48;;;4.15;;
56794;SDS011;42678;59.400;18.410;2023-01-13T07:46:24;7.03;;;3.05;;
56794;SDS011;42678;59.400;18.410;2023-01-13T07:48:50;7.05;;;3.83;;
56794;SDS011;42678;59.400;18.410;2023-01-13T07:51:15;5.50;;;3.13;;
56794;SDS011;42678;59.400;18.410;2023-01-13T07:53:41;3.10;;;1.70;;
56794;SDS011;42678;59.400;18.410;2023-01-13T07:56:06;7.53;;;3.47;;
56794;SDS011;42678;59.400;18.410;2023-01-13T07:58:33;10.48;;;3.97;;
56794;SDS011;42678;59.400;18.410;2023-01-13T08:00:59;10.38;;;4.50;;
56794;SDS011;42678;59.400;18.410;2023-01-13T08:03:25;11.95;;;4.38;;
56794;SDS011;42678;59.400;18.410;2023-01-13T08:05:50;14.82;;;4.43;;
56794;SDS011;42678;59.400;18.410;2023-01-13T08:08:16;8.65;;;4.15;;
56794;SDS011;42678;59.400;18.410;2023-01-13T08:10:42;8.93;;;4.30;;
56794;SDS011;42678;59.400;18.410;2023-01-13T08:13:11;11.27;;;4.95;;
56794;SDS011;42678;59.400;18.410;2023-01-13T08:15:44;14.63;;;4.57;;
56794;SDS011;42678;59.400;18.410;2023-01-13T08:18:10;14.70;;;5.38;;
56794;SDS011;42678;59.400;18.410;2023-01-13T08:20:36;9.18;;;3.83;;
56794;SDS011;42678;59.400;18.410;2023-01-13T08:23:01;11.27;;;4.30;;
56794;SDS011;42678;59.400;18.410;2023-01-13T08:25:27;9.52;;;3.53;;
56794;SDS011;42678;59.400;18.410;2023-01-13T08:27:53;11.88;;;3.70;;
56794;SDS011;42678;59.400;18.410;2023-01-13T08:30:19;9.05;;;4.03;;
56794;SDS011;42678;59.400;18.410;2023-01-13T08:32:45;10.85;;;3.33;;
56794;SDS011;42678;59.400;18.410;2023-01-13T08:35:11;8.70;;;3.08;;
56794;SDS011;42678;59.400;18.410;2023-01-13T08:37:37;9.23;;;3.50;;
56794;SDS011;42678;59.400;18.410;2023-01-13T08:40:03;5.80;;;2.60;;
56794;SDS011;42678;59.400;18.410;2023-01-13T08:42:29;13.45;;;3.33;;
56794;SDS011;42678;59.400;18.410;2023-01-13T08:44:55;8.02;;;3.50;;
56794;SDS011;42678;59.400;18.410;2023-01-13T08:47:20;8.32;;;3.85;;
56794;SDS011;42678;59.400;18.410;2023-01-13T08:49:46;9.55;;;3.55;;
56794;SDS011;42678;59.400;18.410;2023-01-13T08:52:11;7.70;;;3.22;;
56794;SDS011;42678;59.400;18.410;2023-01-13T08:54:38;10.35;;;4.28;;
56794;SDS011;42678;59.400;18.410;2023-01-13T08:57:04;8.50;;;4.38;;
56794;SDS011;42678;59.400;18.410;2023-01-13T08:59:30;6.38;;;3.53;;
56794;SDS011;42678;59.400;18.410;2023-01-13T09:01:55;8.13;;;2.97;;
56794;SDS011;42678;59.400;18.410;2023-01-13T09:04:22;5.68;;;2.78;;
56794;SDS011;42678;59.400;18.410;2023-01-13T09:06:48;10.45;;;2.42;;
56794;SDS011;42678;59.400;18.410;2023-01-13T09:09:15;7.22;;;2.42;;
56794;SDS011;42678;59.400;18.410;2023-01-13T09:11:42;5.63;;;2.53;;
56794;SDS011;42678;59.400;18.410;2023-01-13T09:14:28;4.95;;;2.17;;
56794;SDS011;42678;59.400;18.410;2023-01-13T09:16:53;8.95;;;2.83;;
56794;SDS011;42678;59.400;18.410;2023-01-13T09:19:19;4.30;;;2.03;;
56794;SDS011;42678;59.400;18.410;2023-01-13T09:21:44;7.85;;;2.50;;
56794;SDS011;42678;59.400;18.410;2023-01-13T09:24:10;6.10;;;2.33;;
56794;SDS011;42678;59.400;18.410;2023-01-13T09:26:35;4.00;;;1.80;;
56794;SDS011;42678;59.400;18.410;2023-01-13T09:29:01;3.55;;;1.50;;
56794;SDS011;42678;59.400;18.410;2023-01-13T09:31:27;2.88;;;1.85;;
56794;SDS011;42678;59.400;18.410;2023-01-13T09:33:52;3.28;;;1.58;;
56794;SDS011;42678;59.400;18.410;2023-01-13T09:36:36;3.38;;;1.10;;
56794;SDS011;42678;59.400;18.410;2023-01-13T09:39:02;4.15;;;1.65;;
56794;SDS011;42678;59.400;18.410;2023-01-13T09:41:28;3.05;;;1.25;;
56794;SDS011;42678;59.400;18.410;2023-01-13T09:44:57;4.38;;;1.10;;
56794;SDS011;42678;59.400;18.410;2023-01-13T09:47:03;2.67;;;0.88;;
56794;SDS011;42678;59.400;18.410;2023-01-13T09:49:37;18.98;;;11.20;;
56794;SDS011;42678;59.400;18.410;2023-01-13T09:57:13;4.22;;;0.70;;
56794;SDS011;42678;59.400;18.410;2023-01-13T09:59:39;7.28;;;3.35;;
56794;SDS011;42678;59.400;18.410;2023-01-13T10:04:44;0.80;;;0.40;;
56794;SDS011;42678;59.400;18.410;2023-01-13T10:07:27;1.95;;;0.60;;
56794;SDS011;42678;59.400;18.410;2023-01-13T10:09:54;5.47;;;3.40;;
56794;SDS011;42678;59.400;18.410;2023-01-13T10:12:24;2.80;;;1.23;;
56794;SDS011;42678;59.400;18.410;2023-01-13T10:15:13;2.40;;;0.77;;
56794;SDS011;42678;59.400;18.410;2023-01-13T10:17:50;2.40;;;0.90;;
56794;SDS011;42678;59.400;18.410;2023-01-13T10:25:17;3.35;;;1.77;;
56794;SDS011;42678;59.400;18.410;2023-01-13T10:27:48;3.83;;;1.80;;
56794;SDS011;42678;59.400;18.410;2023-01-13T10:32:49;2.63;;;1.05;;
56794;SDS011;42678;59.400;18.410;2023-01-13T10:35:16;6.20;;;2.13;;
56794;SDS011;42678;59.400;18.410;2023-01-13T10:37:46;4.70;;;1.77;;
56794;SDS011;42678;59.400;18.410;2023-01-13T10:40:19;3.03;;;0.85;;
56794;SDS011;42678;59.400;18.410;2023-01-13T10:42:45;7.00;;;2.90;;
56794;SDS011;42678;59.400;18.410;2023-01-13T10:45:16;6.68;;;2.17;;
56794;SDS011;42678;59.400;18.410;2023-01-13T10:47:47;10.98;;;3.60;;
56794;SDS011;42678;59.400;18.410;2023-01-13T10:50:27;8.13;;;2.00;;
56794;SDS011;42678;59.400;18.410;2023-01-13T10:52:54;5.50;;;1.98;;
56794;SDS011;42678;59.400;18.410;2023-01-13T10:58:18;5.82;;;2.10;;
56794;SDS011;42678;59.400;18.410;2023-01-13T11:00:44;8.45;;;2.17;;
56794;SDS011;42678;59.400;18.410;2023-01-13T11:03:14;8.10;;;3.03;;
56794;SDS011;42678;59.400;18.410;2023-01-13T11:05:46;7.90;;;2.47;;
56794;SDS011;42678;59.400;18.410;2023-01-13T11:08:16;7.03;;;2.67;;
56794;SDS011;42678;59.400;18.410;2023-01-13T11:10:46;5.40;;;2.22;;
56794;SDS011;42678;59.400;18.410;2023-01-13T11:19:06;5.72;;;2.78;;
56794;SDS011;42678;59.400;18.410;2023-01-13T11:21:37;4.15;;;2.33;;
56794;SDS011;42678;59.400;18.410;2023-01-13T11:24:05;5.53;;;2.88;;
56794;SDS011;42678;59.400;18.410;2023-01-13T11:26:40;4.32;;;1.63;;
56794;SDS011;42678;59.400;18.410;2023-01-13T11:29:10;2.28;;;1.27;;
56794;SDS011;42678;59.400;18.410;2023-01-13T11:31:47;4.82;;;2.10;;
56794;SDS011;42678;59.400;18.410;2023-01-13T11:34:20;4.43;;;1.65;;
56794;SDS011;42678;59.400;18.410;2023-01-13T11:36:50;2.88;;;1.40;;
56794;SDS011;42678;59.400;18.410;2023-01-13T11:41:52;4.72;;;1.33;;
56794;SDS011;42678;59.400;18.410;2023-01-13T11:44:44;2.33;;;1.05;;
56794;SDS011;42678;59.400;18.410;2023-01-13T11:47:10;5.15;;;1.23;;
56794;SDS011;42678;59.400;18.410;2023-01-13T11:49:36;3.03;;;1.10;;
56794;SDS011;42678;59.400;18.410;2023-01-13T11:52:10;3.38;;;0.77;;
56794;SDS011;42678;59.400;18.410;2023-01-13T11:57:36;2.72;;;0.98;;
56794;SDS011;42678;59.400;18.410;2023-01-13T12:05:35;2.92;;;0.73;;
56794;SDS011;42678;59.400;18.410;2023-01-13T12:08:21;3.60;;;1.05;;
56794;SDS011;42678;59.400;18.410;2023-01-13T12:10:54;5.82;;;0.98;;
56794;SDS011;42678;59.400;18.410;2023-01-13T12:13:31;4.00;;;1.42;;
56794;SDS011;42678;59.400;18.410;2023-01-13T12:19:44;2.13;;;1.00;;
56794;SDS011;42678;59.400;18.410;2023-01-13T12:21:40;1.90;;;1.10;;
56794;SDS011;42678;59.400;18.410;2023-01-13T12:26:41;2.13;;;1.08;;
56794;SDS011;42678;59.400;18.410;2023-01-13T12:29:12;4.43;;;1.02;;
56794;SDS011;42678;59.400;18.410;2023-01-13T12:31:39;5.65;;;1.83;;
56794;SDS011;42678;59.400;18.410;2023-01-13T12:36:47;3.33;;;1.10;;
56794;SDS011;42678;59.400;18.410;2023-01-13T12:42:00;6.47;;;0.98;;
56794;SDS011;42678;59.400;18.410;2023-01-13T12:45:05;3.90;;;0.90;;
56794;SDS011;42678;59.400;18.410;2023-01-13T12:47:32;4.07;;;0.93;;
56794;SDS011;42678;59.400;18.410;2023-01-13T12:52:56;12.45;;;4.97;;
56794;SDS011;42678;59.400;18.410;2023-01-13T12:55:30;5.90;;;1.27;;
56794;SDS011;42678;59.400;18.410;2023-01-13T13:03:18;8.05;;;1.10;;
56794;SDS011;42678;59.400;18.410;2023-01-13T13:10:45;12.88;;;1.83;;
56794;SDS011;42678;59.400;18.410;2023-01-13T13:16:33;8.98;;;3.67;;
56794;SDS011;42678;59.400;18.410;2023-01-13T13:18:42;10.73;;;1.40;;
56794;SDS011;42678;59.400;18.410;2023-01-13T13:21:08;3.97;;;1.08;;
56794;SDS011;42678;59.400;18.410;2023-01-13T13:28:48;6.95;;;1.10;;
56794;SDS011;42678;59.400;18.410;2023-01-13T13:31:35;7.07;;;1.13;;
56794;SDS011;42678;59.400;18.410;2023-01-13T13:34:19;4.80;;;1.40;;
56794;SDS011;42678;59.400;18.410;2023-01-13T13:36:52;8.48;;;0.98;;
56794;SDS011;42678;59.400;18.410;2023-01-13T13:39:26;6.10;;;1.85;;
56794;SDS011;42678;59.400;18.410;2023-01-13T13:45:01;10.98;;;1.58;;
56794;SDS011;42678;59.400;18.410;2023-01-13T13:47:47;5.22;;;1.48;;
56794;SDS011;42678;59.400;18.410;2023-01-13T13:50:17;7.95;;;1.52;;
56794;SDS011;42678;59.400;18.410;2023-01-13T13:52:49;10.55;;;1.40;;
56794;SDS011;42678;59.400;18.410;2023-01-13T13:55:24;4.70;;;1.20;;
56794;SDS011;42678;59.400;18.410;2023-01-13T13:57:51;6.25;;;1.35;;
56794;SDS011;42678;59.400;18.410;2023-01-13T14:00:33;16.27;;;2.45;;
56794;SDS011;42678;59.400;18.410;2023-01-13T14:03:05;7.15;;;1.63;;
56794;SDS011;42678;59.400;18.410;2023-01-13T14:05:33;16.70;;;5.90;;
56794;SDS011;42678;59.400;18.410;2023-01-13T14:08:00;6.95;;;1.77;;
56794;SDS011;42678;59.400;18.410;2023-01-13T14:10:30;11.50;;;1.77;;
56794;SDS011;42678;59.400;18.410;2023-01-13T14:12:57;9.02;;;1.80;;
56794;SDS011;42678;59.400;18.410;2023-01-13T14:15:28;12.63;;;2.13;;
56794;SDS011;42678;59.400;18.410;2023-01-13T14:17:55;13.60;;;1.70;;
56794;SDS011;42678;59.400;18.410;2023-01-13T14:20:21;9.02;;;1.77;;
56794;SDS011;42678;59.400;18.410;2023-01-13T14:22:50;14.90;;;3.28;;
56794;SDS011;42678;59.400;18.410;2023-01-13T14:27:55;5.93;;;1.50;;
56794;SDS011;42678;59.400;18.410;2023-01-13T14:30:22;5.80;;;1.50;;
56794;SDS011;42678;59.400;18.410;2023-01-13T14:32:48;12.65;;;2.28;;
56794;SDS011;42678;59.400;18.410;2023-01-13T14:35:15;8.38;;;2.72;;
56794;SDS011;42678;59.400;18.410;2023-01-13T14:37:41;5.65;;;1.48;;
56794;SDS011;42678;59.400;18.410;2023-01-13T14:43:00;8.32;;;2.42;;
56794;SDS011;42678;59.400;18.410;2023-01-13T14:45:26;7.32;;;1.83;;
56794;SDS011;42678;59.400;18.410;2023-01-13T14:47:52;15.98;;;1.58;;
56794;SDS011;42678;59.400;18.410;2023-01-13T14:50:18;13.45;;;2.20;;
56794;SDS011;42678;59.400;18.410;2023-01-13T14:52:52;7.22;;;1.73;;
56794;SDS011;42678;59.400;18.410;2023-01-13T15:00:39;14.13;;;1.27;;
56794;SDS011;42678;59.400;18.410;2023-01-13T15:03:05;9.02;;;1.50;;
56794;SDS011;42678;59.400;18.410;2023-01-13T15:05:35;10.52;;;2.45;;
56794;SDS011;42678;59.400;18.410;2023-01-13T15:08:02;15.13;;;1.92;;
56794;SDS011;42678;59.400;18.410;2023-01-13T15:11:03;16.40;;;1.95;;
56794;SDS011;42678;59.400;18.410;2023-01-13T15:13:25;11.95;;;2.65;;
56794;SDS011;42678;59.400;18.410;2023-01-13T15:15:52;9.77;;;2.15;;
56794;SDS011;42678;59.400;18.410;2023-01-13T15:18:18;15.35;;;2.40;;
56794;SDS011;42678;59.400;18.410;2023-01-13T15:20:44;16.77;;;2.15;;
56794;SDS011;42678;59.400;18.410;2023-01-13T15:23:10;16.27;;;2.67;;
56794;SDS011;42678;59.400;18.410;2023-01-13T15:25:40;18.25;;;2.40;;
56794;SDS011;42678;59.400;18.410;2023-01-13T15:28:06;17.60;;;2.03;;
56794;SDS011;42678;59.400;18.410;2023-01-13T15:30:38;20.33;;;2.78;;
56794;SDS011;42678;59.400;18.410;2023-01-13T15:33:04;14.38;;;2.58;;
56794;SDS011;42678;59.400;18.410;2023-01-13T15:35:29;19.20;;;3.88;;
56794;SDS011;42678;59.400;18.410;2023-01-13T15:37:55;23.23;;;2.97;;
56794;SDS011;42678;59.400;18.410;2023-01-13T15:40:22;20.65;;;2.97;;
56794;SDS011;42678;59.400;18.410;2023-01-13T15:42:48;19.30;;;2.88;;
56794;SDS011;42678;59.400;18.410;2023-01-13T15:45:32;21.27;;;2.72;;
56794;SDS011;42678;59.400;18.410;2023-01-13T15:48:19;20.05;;;2.03;;
56794;SDS011;42678;59.400;18.410;2023-01-13T15:50:44;19.83;;;2.42;;
56794;SDS011;42678;59.400;18.410;2023-01-13T15:53:11;19.15;;;3.03;;
56794;SDS011;42678;59.400;18.410;2023-01-13T15:55:37;23.25;;;2.63;;
56794;SDS011;42678;59.400;18.410;2023-01-13T15:58:05;29.98;;;3.53;;
56794;SDS011;42678;59.400;18.410;2023-01-13T16:00:31;17.55;;;2.25;;
56794;SDS011;42678;59.400;18.410;2023-01-13T16:02:57;20.08;;;2.95;;
56794;SDS011;42678;59.400;18.410;2023-01-13T16:05:24;16.27;;;3.03;;
56794;SDS011;42678;59.400;18.410;2023-01-13T16:07:50;25.42;;;4.38;;
56794;SDS011;42678;59.400;18.410;2023-01-13T16:10:17;24.80;;;3.22;;
56794;SDS011;42678;59.400;18.410;2023-01-13T16:12:44;29.77;;;5.00;;
56794;SDS011;42678;59.400;18.410;2023-01-13T16:15:11;32.13;;;3.67;;
56794;SDS011;42678;59.400;18.410;2023-01-13T16:17:37;20.05;;;3.28;;
56794;SDS011;42678;59.400;18.410;2023-01-13T16:20:03;33.92;;;3.95;;
56794;SDS011;42678;59.400;18.410;2023-01-13T16:22:28;25.88;;;3.13;;
56794;SDS011;42678;59.400;18.410;2023-01-13T16:24:54;35.75;;;4.78;;
56794;SDS011;42678;59.400;18.410;2023-01-13T16:27:21;32.08;;;4.32;;
56794;SDS011;42678;59.400;18.410;2023-01-13T16:29:47;35.03;;;4.88;;
56794;SDS011;42678;59.400;18.410;2023-01-13T16:32:13;28.80;;;3.88;;